sensor_id;sensor_type;location;lat;lon;timestamp;pressure;altitude;pressure_sealevel;temperature
67599;BMP280;62026;39.230;9.122;2022-12-07T00:01:24;100727.75;;;13.99
67599;BMP280;62026;39.230;9.122;2022-12-07T00:03:53;100728.69;;;14.05
67599;BMP280;62026;39.230;9.122;2022-12-07T00:06:20;100728.44;;;14.06
67599;BMP280;62026;39.230;9.122;2022-12-07T00:08:47;100720.63;;;14.00
67599;BMP280;62026;39.230;9.122;2022-12-07T00:11:22;100730.78;;;14.03
67599;BMP280;62026;39.230;9.122;2022-12-07T00:14:04;100730.78;;;14.03
67599;BMP280;62026;39.230;9.122;2022-12-07T00:16:32;100727.53;;;14.01
67599;BMP280;62026;39.230;9.122;2022-12-07T00:18:59;100736.53;;;14.00
67599;BMP280;62026;39.230;9.122;2022-12-07T00:21:34;100730.41;;;13.99
67599;BMP280;62026;39.230;9.122;2022-12-07T00:24:01;100737.47;;;13.94
67599;BMP280;62026;39.230;9.122;2022-12-07T00:26:31;100752.59;;;13.93
67599;BMP280;62026;39.230;9.122;2022-12-07T00:29:06;100741.59;;;13.90
67599;BMP280;62026;39.230;9.122;2022-12-07T00:31:36;100729.38;;;13.89
67599;BMP280;62026;39.230;9.122;2022-12-07T00:34:12;100727.75;;;13.88
67599;BMP280;62026;39.230;9.122;2022-12-07T00:36:39;100730.06;;;13.84
67599;BMP280;62026;39.230;9.122;2022-12-07T00:39:04;100725.34;;;13.86
67599;BMP280;62026;39.230;9.122;2022-12-07T00:41:30;100730.28;;;13.83
67599;BMP280;62026;39.230;9.122;2022-12-07T00:43:57;100728.66;;;13.82
67599;BMP280;62026;39.230;9.122;2022-12-07T00:46:24;100728.44;;;13.83
67599;BMP280;62026;39.230;9.122;2022-12-07T00:48:52;100728.66;;;13.82
67599;BMP280;62026;39.230;9.122;2022-12-07T00:51:22;100722.00;;;13.79
67599;BMP280;62026;39.230;9.122;2022-12-07T00:53:48;100721.19;;;13.79
67599;BMP280;62026;39.230;9.122;2022-12-07T00:56:25;100723.47;;;13.75
67599;BMP280;62026;39.230;9.122;2022-12-07T00:58:59;100724.84;;;13.78
67599;BMP280;62026;39.230;9.122;2022-12-07T01:01:33;100718.72;;;13.77
67599;BMP280;62026;39.230;9.122;2022-12-07T01:04:00;100716.31;;;13.75
67599;BMP280;62026;39.230;9.122;2022-12-07T01:06:27;100704.34;;;13.73
67599;BMP280;62026;39.230;9.122;2022-12-07T01:08:54;100713.09;;;13.73
67599;BMP280;62026;39.230;9.122;2022-12-07T01:11:24;100714.47;;;13.76
67599;BMP280;62026;39.230;9.122;2022-12-07T01:13:53;100713.44;;;13.77
67599;BMP280;62026;39.230;9.122;2022-12-07T01:16:21;100719.78;;;13.76
67599;BMP280;62026;39.230;9.122;2022-12-07T01:18:50;100712.06;;;13.74
67599;BMP280;62026;39.230;9.122;2022-12-07T01:21:23;100706.50;;;13.64
67599;BMP280;62026;39.230;9.122;2022-12-07T01:23:50;100717.47;;;13.68
67599;BMP280;62026;39.230;9.122;2022-12-07T01:26:21;100714.56;;;13.69
67599;BMP280;62026;39.230;9.122;2022-12-07T01:28:48;100725.19;;;13.69
67599;BMP280;62026;39.230;9.122;2022-12-07T01:31:20;100719.06;;;13.69
67599;BMP280;62026;39.230;9.122;2022-12-07T01:33:49;100725.19;;;13.69
67599;BMP280;62026;39.230;9.122;2022-12-07T01:36:29;100729.34;;;13.65
67599;BMP280;62026;39.230;9.122;2022-12-07T01:39:00;100729.34;;;13.65
67599;BMP280;62026;39.230;9.122;2022-12-07T01:41:31;100733.72;;;13.60
67599;BMP280;62026;39.230;9.122;2022-12-07T01:44:29;100740.41;;;13.62
67599;BMP280;62026;39.230;9.122;2022-12-07T01:47:02;100737.19;;;13.60
67599;BMP280;62026;39.230;9.122;2022-12-07T01:49:38;100737.75;;;13.62
67599;BMP280;62026;39.230;9.122;2022-12-07T01:52:29;100743.66;;;13.64
67599;BMP280;62026;39.230;9.122;2022-12-07T01:55:02;100733.50;;;13.61
67599;BMP280;62026;39.230;9.122;2022-12-07T01:57:32;100730.72;;;13.56
67599;BMP280;62026;39.230;9.122;2022-12-07T02:00:00;100729.13;;;13.55
67599;BMP280;62026;39.230;9.122;2022-12-07T02:03:13;100734.84;;;13.52
67599;BMP280;62026;39.230;9.122;2022-12-07T02:05:43;100724.81;;;13.54
67599;BMP280;62026;39.230;9.122;2022-12-07T02:08:12;100712.50;;;13.48
67599;BMP280;62026;39.230;9.122;2022-12-07T02:10:38;100710.97;;;13.52
67599;BMP280;62026;39.230;9.122;2022-12-07T02:13:14;100719.75;;;13.53
67599;BMP280;62026;39.230;9.122;2022-12-07T02:21:45;100703.03;;;13.52
67599;BMP280;62026;39.230;9.122;2022-12-07T02:27:16;100696.09;;;13.51
67599;BMP280;62026;39.230;9.122;2022-12-07T02:32:48;100690.72;;;13.58
67599;BMP280;62026;39.230;9.122;2022-12-07T02:38:16;100686.69;;;13.55
67599;BMP280;62026;39.230;9.122;2022-12-07T02:41:01;100690.34;;;13.54
67599;BMP280;62026;39.230;9.122;2022-12-07T02:43:39;100687.13;;;13.52
67599;BMP280;62026;39.230;9.122;2022-12-07T02:46:13;100683.88;;;13.50
67599;BMP280;62026;39.230;9.122;2022-12-07T02:48:43;100685.50;;;13.51
67599;BMP280;62026;39.230;9.122;2022-12-07T02:51:09;100686.31;;;13.52
67599;BMP280;62026;39.230;9.122;2022-12-07T02:53:40;100682.84;;;13.51
67599;BMP280;62026;39.230;9.122;2022-12-07T03:02:19;100678.13;;;13.53
67599;BMP280;62026;39.230;9.122;2022-12-07T03:08:04;100664.53;;;13.50
67599;BMP280;62026;39.230;9.122;2022-12-07T03:10:56;100673.63;;;13.54
67599;BMP280;62026;39.230;9.122;2022-12-07T03:16:21;100661.75;;;13.56
67599;BMP280;62026;39.230;9.122;2022-12-07T03:18:58;100660.72;;;13.57
67599;BMP280;62026;39.230;9.122;2022-12-07T03:24:28;100649.09;;;13.58
67599;BMP280;62026;39.230;9.122;2022-12-07T03:27:13;100644.28;;;13.55
67599;BMP280;62026;39.230;9.122;2022-12-07T03:29:47;100644.81;;;13.57
67599;BMP280;62026;39.230;9.122;2022-12-07T03:32:52;100649.91;;;13.59
67599;BMP280;62026;39.230;9.122;2022-12-07T03:36:02;100642.63;;;13.54
67599;BMP280;62026;39.230;9.122;2022-12-07T03:38:31;100645.75;;;13.63
67599;BMP280;62026;39.230;9.122;2022-12-07T03:41:06;100641.47;;;13.62
67599;BMP280;62026;39.230;9.122;2022-12-07T03:43:35;100641.25;;;13.63
67599;BMP280;62026;39.230;9.122;2022-12-07T03:46:31;100642.88;;;13.64
67599;BMP280;62026;39.230;9.122;2022-12-07T03:54:39;100636.84;;;13.57
67599;BMP280;62026;39.230;9.122;2022-12-07T03:57:09;100642.50;;;13.61
67599;BMP280;62026;39.230;9.122;2022-12-07T03:59:37;100647.34;;;13.52
67599;BMP280;62026;39.230;9.122;2022-12-07T04:02:06;100639.88;;;13.49
67599;BMP280;62026;39.230;9.122;2022-12-07T04:04:34;100638.69;;;13.45
67599;BMP280;62026;39.230;9.122;2022-12-07T04:07:00;100639.59;;;13.39
67599;BMP280;62026;39.230;9.122;2022-12-07T04:09:26;100632.69;;;13.38
67599;BMP280;62026;39.230;9.122;2022-12-07T04:11:52;100637.56;;;13.41
67599;BMP280;62026;39.230;9.122;2022-12-07T04:14:18;100639.28;;;13.35
67599;BMP280;62026;39.230;9.122;2022-12-07T04:16:56;100644.00;;;13.33
67599;BMP280;62026;39.230;9.122;2022-12-07T04:19:29;100639.13;;;13.30
67599;BMP280;62026;39.230;9.122;2022-12-07T04:21:57;100628.19;;;13.27
67599;BMP280;62026;39.230;9.122;2022-12-07T04:24:24;100639.38;;;13.29
67599;BMP280;62026;39.230;9.122;2022-12-07T04:26:50;100640.03;;;13.24
67599;BMP280;62026;39.230;9.122;2022-12-07T04:29:18;100639.00;;;13.25
67599;BMP280;62026;39.230;9.122;2022-12-07T04:31:45;100633.50;;;13.27
67599;BMP280;62026;39.230;9.122;2022-12-07T04:34:12;100639.00;;;13.25
67599;BMP280;62026;39.230;9.122;2022-12-07T04:36:39;100638.22;;;13.25
67599;BMP280;62026;39.230;9.122;2022-12-07T04:39:08;100627.34;;;13.15
67599;BMP280;62026;39.230;9.122;2022-12-07T04:41:34;100630.13;;;13.20
67599;BMP280;62026;39.230;9.122;2022-12-07T04:44:03;100638.31;;;13.18
67599;BMP280;62026;39.230;9.122;2022-12-07T04:46:31;100645.91;;;13.15
67599;BMP280;62026;39.230;9.122;2022-12-07T04:48:58;100646.94;;;13.14
67599;BMP280;62026;39.230;9.122;2022-12-07T04:51:28;100656.72;;;13.13
67599;BMP280;62026;39.230;9.122;2022-12-07T04:53:55;100651.50;;;13.06
67599;BMP280;62026;39.230;9.122;2022-12-07T04:56:22;100654.97;;;13.07
67599;BMP280;62026;39.230;9.122;2022-12-07T04:58:49;100658.88;;;13.04
67599;BMP280;62026;39.230;9.122;2022-12-07T05:01:17;100653.03;;;13.02
67599;BMP280;62026;39.230;9.122;2022-12-07T05:03:44;100653.03;;;13.02
67599;BMP280;62026;39.230;9.122;2022-12-07T05:06:11;100655.06;;;13.00
67599;BMP280;62026;39.230;9.122;2022-12-07T05:08:38;100649.19;;;12.98
67599;BMP280;62026;39.230;9.122;2022-12-07T05:11:05;100647.72;;;13.02
67599;BMP280;62026;39.230;9.122;2022-12-07T05:13:32;100644.03;;;13.03
67599;BMP280;62026;39.230;9.122;2022-12-07T05:15:59;100648.75;;;13.01
67599;BMP280;62026;39.230;9.122;2022-12-07T05:18:25;100647.56;;;12.97
67599;BMP280;62026;39.230;9.122;2022-12-07T05:20:52;100641.56;;;12.90
67599;BMP280;62026;39.230;9.122;2022-12-07T05:23:19;100657.00;;;12.93
67599;BMP280;62026;39.230;9.122;2022-12-07T05:25:46;100655.38;;;12.92
67599;BMP280;62026;39.230;9.122;2022-12-07T05:28:12;100655.13;;;12.82
67599;BMP280;62026;39.230;9.122;2022-12-07T05:30:38;100650.88;;;12.81
67599;BMP280;62026;39.230;9.122;2022-12-07T05:33:04;100656.16;;;12.81
67599;BMP280;62026;39.230;9.122;2022-12-07T05:35:30;100657.19;;;12.80
67599;BMP280;62026;39.230;9.122;2022-12-07T05:37:56;100667.78;;;12.80
67599;BMP280;62026;39.230;9.122;2022-12-07T05:40:24;100663.53;;;12.79
67599;BMP280;62026;39.230;9.122;2022-12-07T05:42:50;100669.00;;;12.78
67599;BMP280;62026;39.230;9.122;2022-12-07T05:45:16;100670.00;;;12.83
67599;BMP280;62026;39.230;9.122;2022-12-07T05:47:41;100675.28;;;12.83
67599;BMP280;62026;39.230;9.122;2022-12-07T05:50:08;100677.94;;;12.83
67599;BMP280;62026;39.230;9.122;2022-12-07T05:52:34;100672.63;;;12.83
67599;BMP280;62026;39.230;9.122;2022-12-07T05:55:00;100689.25;;;12.90
67599;BMP280;62026;39.230;9.122;2022-12-07T05:57:26;100687.06;;;12.87
67599;BMP280;62026;39.230;9.122;2022-12-07T05:59:52;100690.84;;;12.91
67599;BMP280;62026;39.230;9.122;2022-12-07T06:02:18;100690.84;;;12.91
67599;BMP280;62026;39.230;9.122;2022-12-07T06:04:46;100695.72;;;12.94
67599;BMP280;62026;39.230;9.122;2022-12-07T06:07:15;100702.63;;;12.95
67599;BMP280;62026;39.230;9.122;2022-12-07T06:09:42;100695.25;;;12.97
67599;BMP280;62026;39.230;9.122;2022-12-07T06:12:11;100695.25;;;12.97
67599;BMP280;62026;39.230;9.122;2022-12-07T06:14:56;100694.81;;;13.00
67599;BMP280;62026;39.230;9.122;2022-12-07T06:17:23;100689.50;;;13.00
67599;BMP280;62026;39.230;9.122;2022-12-07T06:19:49;100694.00;;;13.00
67599;BMP280;62026;39.230;9.122;2022-12-07T06:22:16;100681.94;;;12.86
67599;BMP280;62026;39.230;9.122;2022-12-07T06:24:42;100696.06;;;12.98
67599;BMP280;62026;39.230;9.122;2022-12-07T06:27:09;100691.22;;;12.95
67599;BMP280;62026;39.230;9.122;2022-12-07T06:29:35;100696.31;;;12.96
67599;BMP280;62026;39.230;9.122;2022-12-07T06:32:03;100691.00;;;12.96
67599;BMP280;62026;39.230;9.122;2022-12-07T06:34:29;100700.09;;;13.00
67599;BMP280;62026;39.230;9.122;2022-12-07T06:36:55;100709.09;;;12.99
67599;BMP280;62026;39.230;9.122;2022-12-07T06:39:24;100717.66;;;13.01
67599;BMP280;62026;39.230;9.122;2022-12-07T06:41:51;100705.84;;;12.97
67599;BMP280;62026;39.230;9.122;2022-12-07T06:44:18;100711.41;;;13.07
67599;BMP280;62026;39.230;9.122;2022-12-07T06:46:44;100721.84;;;13.21
67599;BMP280;62026;39.230;9.122;2022-12-07T06:49:10;100718.88;;;13.29
67599;BMP280;62026;39.230;9.122;2022-12-07T06:51:37;100729.31;;;13.42
67599;BMP280;62026;39.230;9.122;2022-12-07T06:54:12;100726.31;;;13.50
67599;BMP280;62026;39.230;9.122;2022-12-07T06:56:39;100719.03;;;13.46
67599;BMP280;62026;39.230;9.122;2022-12-07T06:59:06;100726.47;;;13.55
67599;BMP280;62026;39.230;9.122;2022-12-07T07:01:34;100730.63;;;13.74
67599;BMP280;62026;39.230;9.122;2022-12-07T07:04:01;100730.28;;;13.83
67599;BMP280;62026;39.230;9.122;2022-12-07T07:06:27;100736.06;;;13.91
67599;BMP280;62026;39.230;9.122;2022-12-07T07:08:53;100733.66;;;14.01
67599;BMP280;62026;39.230;9.122;2022-12-07T07:11:20;100731.91;;;14.07
67599;BMP280;62026;39.230;9.122;2022-12-07T07:13:46;100730.75;;;14.15
67599;BMP280;62026;39.230;9.122;2022-12-07T07:16:12;100732.59;;;14.14
67599;BMP280;62026;39.230;9.122;2022-12-07T07:18:38;100736.88;;;14.27
67599;BMP280;62026;39.230;9.122;2022-12-07T07:21:04;100733.75;;;14.41
67599;BMP280;62026;39.230;9.122;2022-12-07T07:23:31;100734.81;;;14.69
67599;BMP280;62026;39.230;9.122;2022-12-07T07:25:57;100737.75;;;14.56
67599;BMP280;62026;39.230;9.122;2022-12-07T07:28:23;100740.13;;;14.69
67599;BMP280;62026;39.230;9.122;2022-12-07T07:30:49;100739.31;;;14.80
67599;BMP280;62026;39.230;9.122;2022-12-07T07:33:15;100754.13;;;15.04
67599;BMP280;62026;39.230;9.122;2022-12-07T07:35:41;100751.94;;;15.01
67599;BMP280;62026;39.230;9.122;2022-12-07T07:38:08;100753.19;;;15.10
67599;BMP280;62026;39.230;9.122;2022-12-07T07:40:35;100752.16;;;15.00
67599;BMP280;62026;39.230;9.122;2022-12-07T07:43:01;100754.00;;;14.99
67599;BMP280;62026;39.230;9.122;2022-12-07T07:45:27;100753.19;;;15.10
67599;BMP280;62026;39.230;9.122;2022-12-07T07:47:54;100751.78;;;15.08
67599;BMP280;62026;39.230;9.122;2022-12-07T07:50:21;100754.22;;;15.09
67599;BMP280;62026;39.230;9.122;2022-12-07T07:52:48;100760.78;;;15.19
67599;BMP280;62026;39.230;9.122;2022-12-07T07:55:14;100762.88;;;15.17
67599;BMP280;62026;39.230;9.122;2022-12-07T07:57:40;100764.81;;;15.38
67599;BMP280;62026;39.230;9.122;2022-12-07T08:00:14;100774.88;;;15.36
67599;BMP280;62026;39.230;9.122;2022-12-07T08:02:41;100763.78;;;15.39
67599;BMP280;62026;39.230;9.122;2022-12-07T08:05:09;100761.34;;;15.37
67599;BMP280;62026;39.230;9.122;2022-12-07T08:07:36;100770.03;;;15.61
67599;BMP280;62026;39.230;9.122;2022-12-07T08:10:03;100771.22;;;15.70
67599;BMP280;62026;39.230;9.122;2022-12-07T08:12:29;100758.72;;;15.88
67599;BMP280;62026;39.230;9.122;2022-12-07T08:14:55;100775.88;;;15.97
67599;BMP280;62026;39.230;9.122;2022-12-07T08:17:21;100759.97;;;16.02
67599;BMP280;62026;39.230;9.122;2022-12-07T08:19:47;100763.13;;;16.37
67599;BMP280;62026;39.230;9.122;2022-12-07T08:22:13;100777.16;;;16.49
67599;BMP280;62026;39.230;9.122;2022-12-07T08:24:39;100770.22;;;16.48
67599;BMP280;62026;39.230;9.122;2022-12-07T08:27:05;100782.41;;;16.66
67599;BMP280;62026;39.230;9.122;2022-12-07T08:29:31;100764.44;;;16.78
67599;BMP280;62026;39.230;9.122;2022-12-07T08:31:57;100776.13;;;16.99
67599;BMP280;62026;39.230;9.122;2022-12-07T08:34:23;100770.34;;;17.07
67599;BMP280;62026;39.230;9.122;2022-12-07T08:36:49;100774.78;;;17.29
67599;BMP280;62026;39.230;9.122;2022-12-07T08:39:15;100776.75;;;17.38
67599;BMP280;62026;39.230;9.122;2022-12-07T08:41:41;100773.63;;;17.46
67599;BMP280;62026;39.230;9.122;2022-12-07T08:44:07;100767.28;;;17.52
67599;BMP280;62026;39.230;9.122;2022-12-07T08:46:37;100777.78;;;17.64
67599;BMP280;62026;39.230;9.122;2022-12-07T08:49:16;100770.25;;;17.56
67599;BMP280;62026;39.230;9.122;2022-12-07T08:51:44;100766.34;;;17.74
67599;BMP280;62026;39.230;9.122;2022-12-07T08:54:15;100780.31;;;17.49
67599;BMP280;62026;39.230;9.122;2022-12-07T08:56:44;100769.38;;;17.45
67599;BMP280;62026;39.230;9.122;2022-12-07T08:59:12;100769.56;;;17.39
67599;BMP280;62026;39.230;9.122;2022-12-07T09:01:40;100780.84;;;17.46
67599;BMP280;62026;39.230;9.122;2022-12-07T09:04:06;100774.56;;;17.67
67599;BMP280;62026;39.230;9.122;2022-12-07T09:06:33;100781.97;;;17.55
67599;BMP280;62026;39.230;9.122;2022-12-07T09:09:01;100784.38;;;17.56
67599;BMP280;62026;39.230;9.122;2022-12-07T09:11:27;100790.16;;;17.75
67599;BMP280;62026;39.230;9.122;2022-12-07T09:13:53;100787.50;;;17.75
67599;BMP280;62026;39.230;9.122;2022-12-07T09:16:19;100785.81;;;17.69
67599;BMP280;62026;39.230;9.122;2022-12-07T09:18:45;100795.56;;;17.85
67599;BMP280;62026;39.230;9.122;2022-12-07T09:21:11;100795.06;;;17.94
67599;BMP280;62026;39.230;9.122;2022-12-07T09:23:37;100800.91;;;17.85
67599;BMP280;62026;39.230;9.122;2022-12-07T09:26:04;100799.88;;;17.91
67599;BMP280;62026;39.230;9.122;2022-12-07T09:28:31;100796.72;;;18.00
67599;BMP280;62026;39.230;9.122;2022-12-07T09:30:57;100798.00;;;17.97
67599;BMP280;62026;39.230;9.122;2022-12-07T09:33:23;100789.97;;;17.92
67599;BMP280;62026;39.230;9.122;2022-12-07T09:35:51;100777.78;;;18.06
67599;BMP280;62026;39.230;9.122;2022-12-07T09:38:19;100786.88;;;18.10
67599;BMP280;62026;39.230;9.122;2022-12-07T09:40:46;100786.63;;;18.12
67599;BMP280;62026;39.230;9.122;2022-12-07T09:43:21;100786.16;;;18.25
67599;BMP280;62026;39.230;9.122;2022-12-07T09:45:52;100779.56;;;18.43
67599;BMP280;62026;39.230;9.122;2022-12-07T09:48:34;100773.63;;;18.36
67599;BMP280;62026;39.230;9.122;2022-12-07T09:51:20;100776.09;;;18.42
67599;BMP280;62026;39.230;9.122;2022-12-07T09:53:47;100784.66;;;18.49
67599;BMP280;62026;39.230;9.122;2022-12-07T09:56:16;100778.00;;;18.52
67599;BMP280;62026;39.230;9.122;2022-12-07T09:58:44;100771.09;;;18.61
67599;BMP280;62026;39.230;9.122;2022-12-07T10:01:16;100772.69;;;18.72
67599;BMP280;62026;39.230;9.122;2022-12-07T10:03:54;100770.81;;;18.73
67599;BMP280;62026;39.230;9.122;2022-12-07T10:06:21;100755.03;;;18.61
67599;BMP280;62026;39.230;9.122;2022-12-07T10:08:47;100773.28;;;18.94
67599;BMP280;62026;39.230;9.122;2022-12-07T10:11:13;100763.66;;;18.83
67599;BMP280;62026;39.230;9.122;2022-12-07T10:13:52;100757.50;;;18.83
67599;BMP280;62026;39.230;9.122;2022-12-07T10:18:54;100747.06;;;19.17
67599;BMP280;62026;39.230;9.122;2022-12-07T10:21:24;100752.19;;;19.23
67599;BMP280;62026;39.230;9.122;2022-12-07T10:26:38;100747.38;;;19.15
67599;BMP280;62026;39.230;9.122;2022-12-07T10:31:46;100730.22;;;19.47
67599;BMP280;62026;39.230;9.122;2022-12-07T10:34:31;100724.81;;;19.57
67599;BMP280;62026;39.230;9.122;2022-12-07T10:37:19;100729.44;;;19.16
67599;BMP280;62026;39.230;9.122;2022-12-07T10:39:52;100727.53;;;19.01
67599;BMP280;62026;39.230;9.122;2022-12-07T10:42:30;100725.41;;;18.93
67599;BMP280;62026;39.230;9.122;2022-12-07T10:45:16;100709.88;;;18.80
67599;BMP280;62026;39.230;9.122;2022-12-07T10:59:45;100693.53;;;18.56
67599;BMP280;62026;39.230;9.122;2022-12-07T11:11:16;100693.50;;;18.46
67599;BMP280;62026;39.230;9.122;2022-12-07T11:25:53;100667.97;;;18.03
67599;BMP280;62026;39.230;9.122;2022-12-07T11:31:34;100659.88;;;17.87
67599;BMP280;62026;39.230;9.122;2022-12-07T11:34:36;100661.00;;;17.91
67599;BMP280;62026;39.230;9.122;2022-12-07T11:37:13;100657.75;;;17.89
67599;BMP280;62026;39.230;9.122;2022-12-07T11:40:21;100647.84;;;17.80
67599;BMP280;62026;39.230;9.122;2022-12-07T11:45:32;100657.72;;;17.79
67599;BMP280;62026;39.230;9.122;2022-12-07T11:48:27;100660.91;;;17.81
67599;BMP280;62026;39.230;9.122;2022-12-07T11:50:59;100652.09;;;17.81
67599;BMP280;62026;39.230;9.122;2022-12-07T11:53:49;100651.59;;;17.79
67599;BMP280;62026;39.230;9.122;2022-12-07T11:56:25;100660.66;;;17.78
67599;BMP280;62026;39.230;9.122;2022-12-07T12:06:43;100637.38;;;17.73
67599;BMP280;62026;39.230;9.122;2022-12-07T12:20:15;100625.81;;;17.52
67599;BMP280;62026;39.230;9.122;2022-12-07T12:22:53;100619.66;;;17.52
67599;BMP280;62026;39.230;9.122;2022-12-07T12:25:35;100619.16;;;17.55
67599;BMP280;62026;39.230;9.122;2022-12-07T12:28:02;100629.59;;;17.62
67599;BMP280;62026;39.230;9.122;2022-12-07T12:30:39;100618.38;;;17.54
67599;BMP280;62026;39.230;9.122;2022-12-07T12:33:25;100614.09;;;17.53
67599;BMP280;62026;39.230;9.122;2022-12-07T12:39:15;100605.53;;;17.56
67599;BMP280;62026;39.230;9.122;2022-12-07T12:46:52;100597.81;;;17.55
67599;BMP280;62026;39.230;9.122;2022-12-07T12:52:00;100592.75;;;17.53
67599;BMP280;62026;39.230;9.122;2022-12-07T12:54:29;100585.25;;;17.50
67599;BMP280;62026;39.230;9.122;2022-12-07T12:57:26;100594.59;;;17.53
67599;BMP280;62026;39.230;9.122;2022-12-07T13:02:38;100580.66;;;17.41
67599;BMP280;62026;39.230;9.122;2022-12-07T13:26:34;100578.28;;;17.49
67599;BMP280;62026;39.230;9.122;2022-12-07T13:31:56;100576.72;;;17.53
67599;BMP280;62026;39.230;9.122;2022-12-07T13:34:36;100573.25;;;17.53
67599;BMP280;62026;39.230;9.122;2022-12-07T13:37:15;100577.78;;;17.52
67599;BMP280;62026;39.230;9.122;2022-12-07T13:39:56;100583.09;;;17.47
67599;BMP280;62026;39.230;9.122;2022-12-07T13:42:34;100580.13;;;17.44
67599;BMP280;62026;39.230;9.122;2022-12-07T13:47:56;100582.81;;;17.49
67599;BMP280;62026;39.230;9.122;2022-12-07T13:50:30;100588.72;;;17.51
67599;BMP280;62026;39.230;9.122;2022-12-07T13:53:01;100579.91;;;17.50
67599;BMP280;62026;39.230;9.122;2022-12-07T13:55:29;100584.44;;;17.50
67599;BMP280;62026;39.230;9.122;2022-12-07T13:57:55;100572.38;;;17.42
67599;BMP280;62026;39.230;9.122;2022-12-07T14:00:28;100578.03;;;17.46
67599;BMP280;62026;39.230;9.122;2022-12-07T14:05:29;100580.94;;;17.44
67599;BMP280;62026;39.230;9.122;2022-12-07T14:08:02;100580.16;;;17.49
67599;BMP280;62026;39.230;9.122;2022-12-07T14:10:39;100587.63;;;17.52
67599;BMP280;62026;39.230;9.122;2022-12-07T14:13:35;100578.50;;;17.43
67599;BMP280;62026;39.230;9.122;2022-12-07T14:16:54;100579.59;;;17.47
67599;BMP280;62026;39.230;9.122;2022-12-07T14:18:51;100569.44;;;17.44
67599;BMP280;62026;39.230;9.122;2022-12-07T14:21:29;100586.03;;;17.51
67599;BMP280;62026;39.230;9.122;2022-12-07T14:24:16;100564.34;;;17.37
67599;BMP280;62026;39.230;9.122;2022-12-07T14:26:48;100590.28;;;17.52
67599;BMP280;62026;39.230;9.122;2022-12-07T14:29:32;100581.47;;;17.51
67599;BMP280;62026;39.230;9.122;2022-12-07T14:32:24;100583.34;;;17.41
67599;BMP280;62026;39.230;9.122;2022-12-07T14:35:00;100580.69;;;17.46
67599;BMP280;62026;39.230;9.122;2022-12-07T14:37:28;100570.50;;;17.38
67599;BMP280;62026;39.230;9.122;2022-12-07T14:39:55;100573.72;;;17.40
67599;BMP280;62026;39.230;9.122;2022-12-07T14:42:26;100585.47;;;17.44
67599;BMP280;62026;39.230;9.122;2022-12-07T14:44:52;100588.13;;;17.39
67599;BMP280;62026;39.230;9.122;2022-12-07T14:47:18;100584.91;;;17.42
67599;BMP280;62026;39.230;9.122;2022-12-07T14:49:44;100574.75;;;17.34
67599;BMP280;62026;39.230;9.122;2022-12-07T14:52:30;100589.19;;;17.43
67599;BMP280;62026;39.230;9.122;2022-12-07T14:54:56;100586.50;;;17.43
67599;BMP280;62026;39.230;9.122;2022-12-07T14:57:23;100579.03;;;17.35
67599;BMP280;62026;39.230;9.122;2022-12-07T14:59:49;100593.44;;;17.39
67599;BMP280;62026;39.230;9.122;2022-12-07T15:02:15;100588.63;;;17.36
67599;BMP280;62026;39.230;9.122;2022-12-07T15:04:41;100586.22;;;17.34
67599;BMP280;62026;39.230;9.122;2022-12-07T15:07:19;100588.88;;;17.34
67599;BMP280;62026;39.230;9.122;2022-12-07T15:09:47;100584.88;;;17.32
67599;BMP280;62026;39.230;9.122;2022-12-07T15:12:13;100587.22;;;17.28
67599;BMP280;62026;39.230;9.122;2022-12-07T15:14:39;100588.84;;;17.24
67599;BMP280;62026;39.230;9.122;2022-12-07T15:17:05;100574.66;;;17.18
67599;BMP280;62026;39.230;9.122;2022-12-07T15:19:31;100586.97;;;17.25
67599;BMP280;62026;39.230;9.122;2022-12-07T15:21:58;100599.75;;;17.23
67599;BMP280;62026;39.230;9.122;2022-12-07T15:24:25;100599.75;;;17.23
67599;BMP280;62026;39.230;9.122;2022-12-07T15:26:52;100600.78;;;17.21
67599;BMP280;62026;39.230;9.122;2022-12-07T15:29:18;100605.59;;;17.19
67599;BMP280;62026;39.230;9.122;2022-12-07T15:31:44;100600.81;;;17.16
67599;BMP280;62026;39.230;9.122;2022-12-07T15:34:11;100595.47;;;17.16
67599;BMP280;62026;39.230;9.122;2022-12-07T15:36:37;100601.06;;;17.15
67599;BMP280;62026;39.230;9.122;2022-12-07T15:39:03;100592.00;;;17.16
67599;BMP280;62026;39.230;9.122;2022-12-07T15:41:29;100581.22;;;17.06
67599;BMP280;62026;39.230;9.122;2022-12-07T15:43:55;100589.81;;;17.13
67599;BMP280;62026;39.230;9.122;2022-12-07T15:46:40;100594.34;;;17.12
67599;BMP280;62026;39.230;9.122;2022-12-07T15:49:17;100592.19;;;17.09
67599;BMP280;62026;39.230;9.122;2022-12-07T15:51:44;100604.53;;;17.15
67599;BMP280;62026;39.230;9.122;2022-12-07T15:54:26;100611.13;;;17.13
67599;BMP280;62026;39.230;9.122;2022-12-07T15:56:53;100611.94;;;17.13
67599;BMP280;62026;39.230;9.122;2022-12-07T15:59:19;100611.47;;;17.16
67599;BMP280;62026;39.230;9.122;2022-12-07T16:01:46;100610.34;;;17.12
67599;BMP280;62026;39.230;9.122;2022-12-07T16:04:12;100596.13;;;17.02
67599;BMP280;62026;39.230;9.122;2022-12-07T16:06:39;100610.06;;;17.09
67599;BMP280;62026;39.230;9.122;2022-12-07T16:09:06;100613.53;;;17.09
67599;BMP280;62026;39.230;9.122;2022-12-07T16:11:33;100618.88;;;17.09
67599;BMP280;62026;39.230;9.122;2022-12-07T16:13:59;100615.41;;;17.09
67599;BMP280;62026;39.230;9.122;2022-12-07T16:16:25;100615.59;;;17.02
67599;BMP280;62026;39.230;9.122;2022-12-07T16:18:53;100621.75;;;17.03
67599;BMP280;62026;39.230;9.122;2022-12-07T16:21:20;100626.28;;;17.02
67599;BMP280;62026;39.230;9.122;2022-12-07T16:23:46;100623.34;;;17.04
67599;BMP280;62026;39.230;9.122;2022-12-07T16:26:18;100625.22;;;17.03
67599;BMP280;62026;39.230;9.122;2022-12-07T16:28:45;100617.75;;;17.00
67599;BMP280;62026;39.230;9.122;2022-12-07T16:31:14;100621.47;;;16.99
67599;BMP280;62026;39.230;9.122;2022-12-07T16:33:43;100614.50;;;16.98
67599;BMP280;62026;39.230;9.122;2022-12-07T16:36:11;100619.56;;;16.95
67599;BMP280;62026;39.230;9.122;2022-12-07T16:38:43;100623.56;;;16.97
67599;BMP280;62026;39.230;9.122;2022-12-07T16:41:10;100620.38;;;16.95